»·PEaware :: N2634K KMRY-KPVF

N2634K :: KMRY-KPVF

FLIGHT INFORMATION

Flight Status: Arrived
Operator: Privately registered:
United States
More flights under this callsign
Pilot: Mark C. (15204)
Aircraft: CESSNA 310
(C310)
More flights by this aircraft type
Origin: KMRY Monterey Peninsula
United States
Destination: KPVF Placerville
United States
More flights between these airports :: More routes between these airports
Route: +MRY4 SNS V111 MOD V113 LIN
File this flight plan on PilotEdge
Remarks:
Altitude:
(Current/Filed)
7,000ft
Speed:
(Current/Filed)
180kts
Departed: 19-Aug-17 05:31 PM
Arrived: 19-Aug-17 06:24 PM
Distance/Time
Traveled:
138nm/0:53
Distance/Time
To Go:
Arrived

Flight Plot

Page will automatically refresh every two minutes.

Flight plan parsing failed; only flown route is shown


Map Options




Map Legend


Flown Route
Filed Route
Departure Airport
Arrival Airport
Navaid (VOR, NDB)
Fix

Horizontal Profiles

Position Reports

Time Latitude Longitude Heading Altitude Ground
Speed
19-Aug-17 17:19 36.589009 -121.856099 155 208ft 0kts
19-Aug-17 17:20 36.589009 -121.856099 155 208ft 0kts
19-Aug-17 17:21 36.589009 -121.856099 155 208ft 0kts
19-Aug-17 17:22 36.589009 -121.856099 155 208ft 0kts
19-Aug-17 17:23 36.589009 -121.856099 155 208ft 0kts
19-Aug-17 17:24 36.589009 -121.856099 155 208ft 0kts
19-Aug-17 17:25 36.589009 -121.856099 155 208ft 0kts
19-Aug-17 17:26 36.589009 -121.856099 155 208ft 0kts
19-Aug-17 17:27 36.589009 -121.856099 155 208ft 0kts
19-Aug-17 17:28 36.589009 -121.856099 155 208ft 0kts
19-Aug-17 17:29 36.589393 -121.855490 42 208ft 7kts
19-Aug-17 17:30 36.588315 -121.850723 113 208ft 14kts
19-Aug-17 17:31 36.586820 -121.846342 112 208ft 16kts
19-Aug-17 17:32 36.584572 -121.840189 112 208ft 19kts
19-Aug-17 17:33 36.582986 -121.835300 101 208ft 9kts
19-Aug-17 17:34 36.582944 -121.833988 62 208ft 0kts
19-Aug-17 17:35 36.587128 -121.844099 292 335ft 107kts
19-Aug-17 17:36 36.614184 -121.870448 341 2148ft 152kts
19-Aug-17 17:37 36.657439 -121.880241 19 3366ft 167kts
19-Aug-17 17:38 36.676578 -121.830278 71 4562ft 159kts
19-Aug-17 17:39 36.689428 -121.777292 71 5756ft 158kts
19-Aug-17 17:40 36.701473 -121.725604 76 6855ft 157kts
19-Aug-17 17:41 36.713360 -121.666953 72 7012ft 188kts
19-Aug-17 17:42 36.732268 -121.605183 53 7006ft 193kts
19-Aug-17 17:43 36.762770 -121.549819 52 7011ft 194kts
19-Aug-17 17:44 36.803807 -121.508981 25 7017ft 190kts
19-Aug-17 17:45 36.850601 -121.478180 24 7015ft 190kts
19-Aug-17 17:46 36.897518 -121.447305 25 7017ft 190kts
19-Aug-17 17:47 36.944069 -121.416222 26 7014ft 189kts
19-Aug-17 17:48 36.990605 -121.385031 25 6991ft 190kts
19-Aug-17 17:49 37.037587 -121.353902 24 6965ft 191kts
19-Aug-17 17:50 37.084532 -121.322961 25 6962ft 191kts
19-Aug-17 17:51 37.131175 -121.291612 25 7035ft 187kts
19-Aug-17 17:52 37.177448 -121.260226 26 7052ft 190kts
19-Aug-17 17:53 37.224244 -121.228788 25 7039ft 191kts
19-Aug-17 17:54 37.271385 -121.197492 25 7022ft 191kts
19-Aug-17 17:55 37.318250 -121.165593 26 7007ft 191kts
19-Aug-17 17:56 37.365123 -121.133840 26 6999ft 191kts
19-Aug-17 17:57 37.412156 -121.102224 26 6998ft 191kts
19-Aug-17 17:58 37.459029 -121.070876 25 6998ft 188kts
19-Aug-17 17:59 37.504171 -121.040305 26 6999ft 182kts
19-Aug-17 18:00 37.548751 -121.009926 26 7000ft 181kts
19-Aug-17 18:01 37.593210 -120.979999 26 7000ft 181kts
19-Aug-17 18:02 37.640036 -120.960157 358 7005ft 178kts
19-Aug-17 18:03 37.689451 -120.963074 354 7004ft 178kts
19-Aug-17 18:04 37.738739 -120.967888 353 7003ft 178kts
19-Aug-17 18:05 37.788262 -120.972958 353 7005ft 178kts
19-Aug-17 18:06 37.837653 -120.978058 353 7014ft 177kts
19-Aug-17 18:07 37.886920 -120.983163 353 7013ft 178kts
19-Aug-17 18:08 37.936220 -120.988297 353 7012ft 178kts
19-Aug-17 18:09 37.985652 -120.993490 352 7013ft 177kts
19-Aug-17 18:10 38.034805 -120.998781 352 7013ft 177kts
19-Aug-17 18:11 38.083856 -120.997866 11 7013ft 179kts
19-Aug-17 18:12 38.131979 -120.979856 14 7012ft 180kts
19-Aug-17 18:13 38.179715 -120.961263 14 7011ft 179kts
19-Aug-17 18:14 38.227577 -120.942546 14 7011ft 179kts
19-Aug-17 18:15 38.274839 -120.924063 14 7102ft 178kts
19-Aug-17 18:16 38.322420 -120.905385 14 7104ft 179kts
19-Aug-17 18:17 38.370246 -120.886602 14 7116ft 180kts
19-Aug-17 18:18 38.422236 -120.866032 15 6139ft 199kts
19-Aug-17 18:19 38.468911 -120.847768 14 4925ft 159kts
19-Aug-17 18:20 38.510569 -120.831682 14 4211ft 159kts
19-Aug-17 18:21 38.555243 -120.814006 15 4251ft 173kts
19-Aug-17 18:22 38.601738 -120.793392 25 4314ft 183kts
19-Aug-17 18:23 38.647311 -120.760480 27 4470ft 191kts
19-Aug-17 18:24 38.688897 -120.715757 40 4403ft 199kts
19-Aug-17 18:25 38.731279 -120.671445 21 4476ft 180kts
19-Aug-17 18:26 38.743713 -120.699899 252 3830ft 99kts
19-Aug-17 18:27 38.732590 -120.732239 243 2932ft 101kts
19-Aug-17 18:28 38.722465 -120.757591 243 2533ft 31kts
19-Aug-17 18:29 38.723194 -120.759039 251 2533ft 6kts

Navigation Log

Ident Type
Flight plan parsing failed, navigation log unavailable